Time;durP1;ratioP1;P1;durP2;ratioP2;P2;SDS_P1;SDS_P2;PMS_P1;PMS_P2;Temp;Humidity;BMP_temperature;BMP_pressure;BME280_temperature;BME280_humidity;BME280_pressure;Samples;Min_cycle;Max_cycle;Signal;HPM_P1;HPM_P2
2023/03/21 00:00:44;;;;;;;44.20;27.80;;;;;;;8.28;81.51;99908.48;104926;1253;95852;-70
2023/03/21 00:03:20;;;;;;;45.50;26.90;;;;;;;8.26;81.36;99905.58;104992;1250;138893;-70
2023/03/21 00:05:52;;;;;;;44.10;27.00;;;;;;;8.24;81.37;99902.49;105044;1249;95660;-70
2023/03/21 00:08:20;;;;;;;45.10;27.30;;;;;;;8.22;81.48;99903.42;103951;1250;139020;-69
2023/03/21 00:10:48;;;;;;;46.30;27.50;;;;;;;8.22;81.62;99901.88;103550;1250;107584;-69
2023/03/21 00:13:17;;;;;;;46.00;28.20;;;;;;;8.22;81.64;99901.02;103557;1251;138536;-69
2023/03/21 00:15:53;;;;;;;48.10;27.20;;;;;;;8.21;81.60;99901.73;104286;1250;108090;-69
2023/03/21 00:18:41;;;;;;;44.60;27.30;;;;;;;8.21;81.68;99897.23;103581;1253;97774;-68
2023/03/21 00:21:14;;;;;;;44.10;26.80;;;;;;;8.19;81.66;99895.90;103742;1250;138832;-68
2023/03/21 00:24:02;;;;;;;48.70;27.00;;;;;;;8.18;81.75;99893.86;103544;1250;106524;-70
2023/03/21 00:26:30;;;;;;;47.90;27.80;;;;;;;8.17;81.71;99893.02;103475;1253;138541;-71
2023/03/21 00:28:57;;;;;;;48.10;28.00;;;;;;;8.16;81.79;99888.89;104432;1249;108099;-69
2023/03/21 00:31:25;;;;;;;44.30;27.70;;;;;;;8.16;81.81;99887.84;104132;1250;138771;-69
2023/03/21 00:33:55;;;;;;;47.60;28.50;;;;;;;8.15;81.89;99886.14;103660;1250;112426;-69
2023/03/21 00:36:24;;;;;;;46.70;27.30;;;;;;;8.13;81.82;99886.90;103996;1249;107538;-69
2023/03/21 00:38:52;;;;;;;49.10;27.80;;;;;;;8.10;82.03;99884.20;105007;1250;138934;-69
2023/03/21 00:41:19;;;;;;;47.90;29.00;;;;;;;8.08;81.97;99883.55;103904;1251;107859;-69
2023/03/21 00:44:06;;;;;;;46.60;27.60;;;;;;;8.06;82.05;99885.49;103353;1249;138327;-69
2023/03/21 00:46:37;;;;;;;50.50;28.70;;;;;;;8.02;82.03;99883.36;103537;1253;110466;-69
2023/03/21 00:49:24;;;;;;;48.50;27.40;;;;;;;8.01;82.28;99884.80;103602;1249;138533;-69
2023/03/21 00:51:52;;;;;;;48.50;28.10;;;;;;;7.99;82.34;99887.63;103584;1250;97873;-69
2023/03/21 00:54:23;;;;;;;47.30;28.30;;;;;;;7.98;82.42;99886.27;103563;1249;106799;-69
2023/03/21 00:56:51;;;;;;;47.20;28.60;;;;;;;7.97;82.57;99883.17;103390;1252;138348;-69
2023/03/21 00:59:18;;;;;;;50.20;28.30;;;;;;;7.96;82.47;99880.80;103588;1253;111330;-69
2023/03/21 01:01:46;;;;;;;48.10;28.70;;;;;;;7.95;82.73;99887.05;104010;1252;138840;-70
2023/03/21 01:04:15;;;;;;;51.00;28.50;;;;;;;7.92;82.78;99882.97;105043;1249;96235;-70
2023/03/21 01:06:44;;;;;;;48.40;29.10;;;;;;;7.92;82.96;99880.55;103896;1253;107907;-69
2023/03/21 01:09:25;;;;;;;48.40;27.10;;;;;;;7.92;82.96;99877.97;104449;1250;138287;-69
2023/03/21 01:11:53;;;;;;;50.50;28.60;;;;;;;7.89;83.06;99876.27;104864;1249;243087;-69
2023/03/21 01:14:22;;;;;;;50.10;28.80;;;;;;;7.89;83.12;99875.41;104051;1249;138349;-69
2023/03/21 01:16:51;;;;;;;46.80;27.40;;;;;;;7.90;83.20;99876.11;104233;1250;97618;-69
2023/03/21 01:19:21;;;;;;;47.10;27.70;;;;;;;7.89;83.28;99876.80;103615;1251;138358;-69
2023/03/21 01:22:09;;;;;;;44.40;27.00;;;;;;;7.88;83.25;99874.55;103506;1251;97786;-69
2023/03/21 01:24:37;;;;;;;51.00;27.70;;;;;;;7.87;83.30;99875.29;104172;1249;110300;-69
2023/03/21 01:27:19;;;;;;;45.90;27.80;;;;;;;7.84;83.37;99871.05;103408;1250;138308;-69
2023/03/21 01:29:48;;;;;;;50.10;29.00;;;;;;;7.83;83.36;99867.09;104125;1250;96316;-70
2023/03/21 01:32:15;;;;;;;47.00;27.80;;;;;;;7.84;83.50;99869.33;103981;1249;138386;-69
2023/03/21 01:34:42;;;;;;;48.20;28.40;;;;;;;7.83;83.45;99866.92;103455;1253;97822;-69
2023/03/21 01:37:13;;;;;;;47.90;28.20;;;;;;;7.79;83.60;99865.83;103497;1249;112433;-70
2023/03/21 01:39:47;;;;;;;49.60;28.20;;;;;;;7.77;83.57;99866.41;103704;1251;106566;-70
2023/03/21 01:42:15;;;;;;;47.30;28.20;;;;;;;7.76;83.78;99862.63;103463;1256;98262;-70
2023/03/21 01:44:57;;;;;;;48.00;27.40;;;;;;;7.76;83.77;99864.55;103918;1249;138098;-70
2023/03/21 01:47:33;;;;;;;46.70;27.80;;;;;;;7.73;83.72;99862.73;104856;1250;96251;-70
2023/03/21 01:50:29;;;;;;;47.20;27.20;;;;;;;7.70;83.87;99864.85;104540;1249;138701;-70
2023/03/21 01:53:19;;;;;;;45.10;26.10;;;;;;;7.69;83.79;99860.89;104971;1250;107101;-70
2023/03/21 01:55:49;;;;;;;46.40;26.20;;;;;;;7.70;83.85;99861.40;103713;1249;138671;-70
2023/03/21 01:58:32;;;;;;;45.30;26.20;;;;;;;7.69;83.83;99860.02;103674;1250;107499;-70
2023/03/21 02:01:21;;;;;;;40.40;25.20;;;;;;;7.68;83.82;99850.20;102559;1250;1003002;-70
2023/03/21 02:03:51;;;;;;;45.70;26.30;;;;;;;7.69;83.81;99848.43;103450;1254;111095;-70
2023/03/21 02:06:44;;;;;;;41.10;24.90;;;;;;;7.68;83.82;99842.40;103522;1251;107841;-69
2023/03/21 02:09:34;;;;;;;40.20;24.50;;;;;;;7.70;83.97;99843.92;104662;1251;138206;-70
2023/03/21 02:12:03;;;;;;;43.10;25.60;;;;;;;7.69;83.90;99849.83;103335;1250;107388;-70
2023/03/21 02:14:33;;;;;;;41.50;24.40;;;;;;;7.67;83.90;99847.46;103359;1253;138591;-70
2023/03/21 02:17:11;;;;;;;39.20;24.60;;;;;;;7.64;83.81;99849.27;103575;1252;110848;-70
2023/03/21 02:20:10;;;;;;;38.00;23.20;;;;;;;7.62;83.81;99848.46;104697;1249;138732;-70
2023/03/21 02:23:03;;;;;;;40.60;22.90;;;;;;;7.61;83.94;99856.79;104914;1249;95972;-71
2023/03/21 02:25:50;;;;;;;43.70;23.80;;;;;;;7.57;83.79;99854.30;104744;1249;139508;-71
2023/03/21 02:28:25;;;;;;;34.30;22.10;;;;;;;7.56;83.90;99861.45;104874;1250;96890;-71
2023/03/21 02:31:25;;;;;;;36.30;21.50;;;;;;;7.54;83.88;99865.10;104886;1250;110193;-71
2023/03/21 02:34:24;;;;;;;34.90;21.10;;;;;;;7.52;83.96;99862.38;104478;1250;107991;-70
2023/03/21 02:37:05;;;;;;;38.40;21.90;;;;;;;7.51;84.08;99859.48;103410;1251;97774;-70
2023/03/21 02:39:49;;;;;;;36.60;22.00;;;;;;;7.52;84.28;99860.98;103368;1253;138883;-71
2023/03/21 02:42:21;;;;;;;38.00;23.00;;;;;;;7.54;84.26;99859.21;103525;1253;97806;-70
2023/03/21 02:45:01;;;;;;;34.70;22.40;;;;;;;7.56;84.32;99860.23;103313;1253;138600;-70
2023/03/21 02:47:34;;;;;;;41.00;22.80;;;;;;;7.55;84.38;99860.92;103451;1253;106712;-69
2023/03/21 02:50:11;;;;;;;37.30;22.80;;;;;;;7.54;84.30;99858.88;103475;1253;138318;-69
2023/03/21 02:52:45;;;;;;;39.30;23.70;;;;;;;7.54;84.39;99859.39;103486;1250;107441;-69
2023/03/21 02:55:19;;;;;;;40.30;24.50;;;;;;;7.53;84.50;99861.67;103438;1250;98625;-69
2023/03/21 02:57:56;;;;;;;40.00;24.30;;;;;;;7.52;84.58;99860.83;103528;1253;110785;-70
2023/03/21 03:00:38;;;;;;;43.70;25.60;;;;;;;7.55;84.62;99862.14;103563;1250;106892;-69
2023/03/21 03:03:06;;;;;;;40.00;24.30;;;;;;;7.57;84.69;99867.61;103444;1253;138530;-69
2023/03/21 03:05:47;;;;;;;42.10;25.20;;;;;;;7.58;84.59;99865.02;103566;1250;107754;-69
2023/03/21 03:08:29;;;;;;;41.50;23.60;;;;;;;7.58;84.59;99864.84;103402;1249;138484;-69
2023/03/21 03:11:24;;;;;;;39.60;24.20;;;;;;;7.60;84.70;99874.11;103575;1249;111380;-69
2023/03/21 03:14:02;;;;;;;39.00;24.30;;;;;;;7.61;84.60;99873.41;103414;1250;138589;-69
2023/03/21 03:17:05;;;;;;;38.50;24.30;;;;;;;7.60;84.59;99872.58;103430;1254;97866;-69
2023/03/21 03:19:36;;;;;;;39.30;24.00;;;;;;;7.60;84.65;99873.96;103357;1251;139948;-69
2023/03/21 03:22:23;;;;;;;36.60;23.30;;;;;;;7.61;84.64;99873.06;103409;1254;97807;-70
2023/03/21 03:24:58;;;;;;;38.70;23.40;;;;;;;7.61;84.61;99873.75;103438;1254;110778;-70
2023/03/21 03:27:45;;;;;;;37.90;23.10;;;;;;;7.61;84.62;99874.80;103372;1251;138186;-69
2023/03/21 03:30:16;;;;;;;37.00;23.10;;;;;;;7.62;84.57;99874.09;102735;1250;1002567;-69
2023/03/21 03:32:48;;;;;;;34.90;22.00;;;;;;;7.60;84.60;99877.23;103297;1251;138409;-69
2023/03/21 03:35:18;;;;;;;39.50;23.50;;;;;;;7.60;84.56;99874.67;103548;1250;98553;-69
2023/03/21 03:37:51;;;;;;;34.70;21.60;;;;;;;7.61;84.65;99875.30;103432;1253;138262;-69
2023/03/21 03:40:27;;;;;;;34.50;21.20;;;;;;;7.63;84.52;99874.56;103265;1253;107760;-69
2023/03/21 03:43:12;;;;;;;32.10;19.70;;;;;;;7.67;84.57;99877.93;103394;1251;98303;-69
2023/03/21 03:45:47;;;;;;;28.60;18.40;;;;;;;7.71;84.70;99882.48;103415;1250;138540;-69
2023/03/21 03:48:25;;;;;;;31.40;19.00;;;;;;;7.73;84.41;99880.71;103436;1251;97775;-68
2023/03/21 03:51:00;;;;;;;28.10;18.40;;;;;;;7.76;84.49;99885.66;103432;1249;138386;-69
2023/03/21 03:53:42;;;;;;;26.20;17.40;;;;;;;7.81;84.40;99886.52;103264;1253;106621;-69
2023/03/21 03:56:24;;;;;;;27.40;18.40;;;;;;;7.88;84.53;99878.91;103350;1251;138641;-69
2023/03/21 03:58:56;;;;;;;27.80;17.30;;;;;;;7.92;84.21;99876.23;103519;1248;107651;-69
2023/03/21 04:01:35;;;;;;;27.30;17.00;;;;;;;7.95;84.20;99873.89;103284;1249;139006;-69
2023/03/21 04:04:02;;;;;;;26.30;17.40;;;;;;;7.97;84.05;99875.38;103469;1250;112063;-69
2023/03/21 04:06:52;;;;;;;25.70;18.20;;;;;;;8.01;83.88;99874.23;103473;1249;108127;-69
2023/03/21 04:09:24;;;;;;;27.00;18.00;;;;;;;8.02;83.69;99871.59;103284;1250;138624;-69
2023/03/21 04:12:09;;;;;;;26.30;17.40;;;;;;;8.03;83.71;99875.90;103427;1250;108105;-69
2023/03/21 04:14:38;;;;;;;25.80;17.30;;;;;;;8.06;83.83;99878.41;103421;1249;138822;-68
2023/03/21 04:17:14;;;;;;;27.00;17.20;;;;;;;8.08;83.52;99877.16;103506;1250;111434;-69
2023/03/21 04:19:41;;;;;;;24.80;16.50;;;;;;;8.11;83.54;99876.40;103390;1253;139162;-69
2023/03/21 04:22:09;;;;;;;24.50;16.70;;;;;;;8.13;83.37;99872.85;103390;1253;97809;-71
2023/03/21 04:24:38;;;;;;;26.60;16.30;;;;;;;8.16;83.43;99874.85;103524;1253;107975;-70
2023/03/21 04:27:06;;;;;;;23.10;15.30;;;;;;;8.17;83.16;99872.40;103369;1249;139305;-71
2023/03/21 04:29:41;;;;;;;;;;;;;;;8.16;83.02;99879.69;103455;1250;111260;-71
2023/03/21 04:32:32;;;;;;;23.70;16.30;;;;;;;8.16;82.99;99880.05;103271;1253;125752;-71
2023/03/21 04:35:08;;;;;;;25.10;15.00;;;;;;;8.14;82.98;99877.48;104290;1249;98317;-71
2023/03/21 04:37:38;;;;;;;23.50;15.50;;;;;;;8.16;83.01;99876.92;103391;1250;138475;-70
2023/03/21 04:40:10;;;;;;;23.40;15.70;;;;;;;8.18;82.94;99876.52;103350;1254;97903;-71
2023/03/21 04:42:37;;;;;;;23.20;16.00;;;;;;;8.18;82.91;99877.40;104848;1249;111925;-71
2023/03/21 04:45:07;;;;;;;22.70;14.80;;;;;;;8.18;82.94;99882.23;104233;1247;139632;-70
2023/03/21 04:47:34;;;;;;;21.40;14.60;;;;;;;8.17;82.62;99882.27;104059;1253;98405;-71
2023/03/21 04:50:02;;;;;;;23.60;15.40;;;;;;;8.14;82.57;99881.15;103433;1250;138418;-71
2023/03/21 04:52:29;;;;;;;21.30;14.30;;;;;;;8.15;82.74;99877.30;103495;1249;97828;-71
2023/03/21 04:54:58;;;;;;;23.40;14.80;;;;;;;8.18;82.69;99877.91;103506;1250;110751;-71
2023/03/21 04:57:25;;;;;;;20.40;14.00;;;;;;;8.19;82.55;99877.52;103386;1250;138567;-71
2023/03/21 04:59:53;;;;;;;19.50;13.90;;;;;;;8.20;82.52;99884.95;103433;1254;97788;-70
2023/03/21 05:02:20;;;;;;;18.20;13.30;;;;;;;8.23;82.55;99882.27;103276;1250;138128;-68
2023/03/21 05:04:48;;;;;;;22.40;15.30;;;;;;;8.24;82.27;99882.59;103563;1250;97812;-68
2023/03/21 05:07:15;;;;;;;20.20;14.20;;;;;;;8.24;82.35;99883.46;103575;1250;110490;-70
2023/03/21 05:09:42;;;;;;;21.90;15.50;;;;;;;8.21;82.24;99889.42;103325;1250;245834;-71
2023/03/21 05:12:12;;;;;;;20.90;14.20;;;;;;;8.19;82.27;99886.70;103356;1250;97687;-69
2023/03/21 05:14:39;;;;;;;21.90;14.90;;;;;;;8.17;82.26;99887.99;103287;1256;138516;-69
2023/03/21 05:17:09;;;;;;;24.20;14.70;;;;;;;8.14;82.27;99891.70;103504;1252;96350;-69
2023/03/21 05:19:39;;;;;;;22.40;14.00;;;;;;;8.10;82.33;99893.56;103394;1250;138431;-69
2023/03/21 05:22:09;;;;;;;20.50;13.90;;;;;;;8.11;82.28;99895.27;103585;1251;107552;-69
2023/03/21 05:24:41;;;;;;;23.10;14.20;;;;;;;8.11;82.34;99896.30;103479;1250;97800;-69
2023/03/21 05:27:33;;;;;;;20.50;14.10;;;;;;;8.14;82.50;99897.78;103351;1255;138679;-69
2023/03/21 05:30:08;;;;;;;19.90;14.10;;;;;;;8.16;82.57;99898.39;104847;1249;95939;-69
2023/03/21 05:32:36;;;;;;;20.30;14.10;;;;;;;8.21;82.54;99901.21;104790;1250;139108;-69
2023/03/21 05:35:04;;;;;;;20.30;14.10;;;;;;;8.23;82.32;99905.13;104177;1249;108592;-69
2023/03/21 05:37:32;;;;;;;23.00;15.50;;;;;;;8.24;82.24;99905.78;103428;1253;137967;-69
2023/03/21 05:40:04;;;;;;;23.10;15.70;;;;;;;8.22;82.10;99903.59;103467;1250;107719;-69
2023/03/21 05:42:34;;;;;;;22.00;15.20;;;;;;;8.22;82.18;99906.91;104863;1247;96011;-69
2023/03/21 05:45:22;;;;;;;22.00;15.10;;;;;;;8.20;82.29;99910.94;104026;1249;137625;-68
2023/03/21 05:48:10;;;;;;;25.00;15.20;;;;;;;8.21;82.27;99912.80;103521;1250;108101;-69
2023/03/21 05:50:51;;;;;;;21.60;14.40;;;;;;;8.21;82.30;99915.74;103321;1250;139229;-70
2023/03/21 05:53:20;;;;;;;22.70;14.50;;;;;;;8.20;82.29;99912.30;103548;1250;107782;-69
2023/03/21 05:55:49;;;;;;;24.70;14.50;;;;;;;8.26;82.18;99914.42;103364;1250;140159;-67
2023/03/21 05:58:34;;;;;;;20.40;13.90;;;;;;;8.29;82.13;99922.64;103565;1250;111938;-66
2023/03/21 06:01:11;;;;;;;22.30;14.40;;;;;;;8.35;82.19;99925.77;103437;1251;109433;-67
2023/03/21 06:03:40;;;;;;;24.80;15.20;;;;;;;8.40;82.06;99927.03;103410;1250;137772;-68
2023/03/21 06:06:28;;;;;;;21.10;15.30;;;;;;;8.40;81.82;99931.89;103439;1250;108573;-68
2023/03/21 06:08:58;;;;;;;22.70;15.10;;;;;;;8.40;81.83;99933.96;103281;1254;138120;-67
2023/03/21 06:11:30;;;;;;;23.50;15.30;;;;;;;8.39;81.81;99936.75;103441;1253;110220;-68
2023/03/21 06:14:12;;;;;;;27.80;15.10;;;;;;;8.41;81.71;99937.56;103138;1251;138833;-68
2023/03/21 06:16:49;;;;;;;21.10;14.30;;;;;;;8.42;81.67;99942.54;103459;1253;98296;-68
2023/03/21 06:19:21;;;;;;;18.40;13.50;;;;;;;8.42;81.47;99940.46;103438;1253;109038;-69
2023/03/21 06:22:02;;;;;;;20.30;14.10;;;;;;;8.45;81.46;99939.53;103437;1253;97883;-68
2023/03/21 06:24:39;;;;;;;20.00;13.00;;;;;;;8.51;81.55;99944.75;103437;1253;110945;-68
2023/03/21 06:27:10;;;;;;;20.20;13.80;;;;;;;8.54;81.31;99943.77;103223;1254;139714;-68
2023/03/21 06:29:56;;;;;;;17.50;13.00;;;;;;;8.58;81.20;99945.93;103419;1253;98331;-71
2023/03/21 06:32:25;;;;;;;19.70;12.40;;;;;;;8.61;81.06;99942.38;104603;1250;139563;-70
2023/03/21 06:34:58;;;;;;;16.00;11.90;;;;;;;8.65;81.12;99948.15;104806;1249;95925;-70
2023/03/21 06:37:28;;;;;;;19.00;12.00;;;;;;;8.67;80.90;99945.67;103333;1250;138699;-69
2023/03/21 06:39:56;;;;;;;15.40;11.00;;;;;;;8.69;80.73;99946.98;103342;1253;107185;-70
2023/03/21 06:42:28;;;;;;;17.00;11.30;;;;;;;8.71;80.53;99946.59;103524;1253;97831;-70
2023/03/21 06:44:59;;;;;;;16.60;11.60;;;;;;;8.71;80.26;99949.70;103246;1250;138326;-70
2023/03/21 06:47:27;;;;;;;14.90;11.10;;;;;;;8.71;80.32;99951.79;103503;1254;97837;-70
2023/03/21 06:49:54;;;;;;;17.20;11.20;;;;;;;8.71;80.25;99952.13;103350;1250;138589;-69
2023/03/21 06:52:22;;;;;;;16.90;10.80;;;;;;;8.69;79.94;99953.92;103485;1253;107712;-69
2023/03/21 06:54:51;;;;;;;17.40;11.50;;;;;;;8.68;79.97;99956.74;103298;1247;97837;-67
2023/03/21 06:57:20;;;;;;;16.60;11.10;;;;;;;8.67;80.13;99961.96;103332;1250;138437;-64
2023/03/21 06:59:50;;;;;;;20.20;13.20;;;;;;;8.67;80.44;99960.92;103478;1250;97807;-71
2023/03/21 07:02:20;;;;;;;16.90;11.10;;;;;;;8.68;80.24;99961.58;103323;1251;138465;-67
2023/03/21 07:04:57;;;;;;;16.10;11.10;;;;;;;8.69;79.92;99962.94;103441;1251;107637;-68
2023/03/21 07:07:28;;;;;;;14.20;9.90;;;;;;;8.67;79.77;99967.70;103426;1248;138766;-68
2023/03/21 07:09:59;;;;;;;14.40;9.60;;;;;;;8.64;79.53;99968.47;103469;1247;108021;-68
2023/03/21 07:12:28;;;;;;;14.30;10.20;;;;;;;8.60;79.42;99972.20;103434;1256;97763;-68
2023/03/21 07:15:26;;;;;;;15.00;9.30;;;;;;;8.59;79.62;99971.54;103168;1250;138671;-68
2023/03/21 07:17:53;;;;;;;14.10;9.70;;;;;;;8.61;79.70;99974.42;103367;1250;109206;-69
2023/03/21 07:20:21;;;;;;;18.10;10.80;;;;;;;8.66;79.62;99973.61;103419;1247;139359;-69
2023/03/21 07:22:48;;;;;;;16.10;9.90;;;;;;;8.69;79.66;99969.35;103503;1251;106457;-69
2023/03/21 07:25:16;;;;;;;17.00;10.10;;;;;;;8.75;79.50;99972.63;103451;1250;97828;-69
2023/03/21 07:27:45;;;;;;;13.60;9.40;;;;;;;8.82;79.43;99972.43;103311;1250;138207;-68
2023/03/21 07:30:13;;;;;;;13.90;9.50;;;;;;;8.90;79.52;99972.88;103454;1253;106807;-69
2023/03/21 07:32:41;;;;;;;13.40;9.40;;;;;;;8.99;79.42;99976.61;103398;1250;138393;-68
2023/03/21 07:35:16;;;;;;;12.30;9.20;;;;;;;9.06;79.28;99972.05;103386;1252;107633;-68
2023/03/21 07:37:45;;;;;;;13.20;9.20;;;;;;;9.11;78.91;99973.65;103273;1250;138561;-72
2023/03/21 07:40:15;;;;;;;13.80;9.70;;;;;;;9.14;78.58;99974.26;103447;1250;112397;-78
2023/03/21 07:42:43;;;;;;;14.00;9.00;;;;;;;9.18;78.52;99972.77;103255;1255;106664;-75
2023/03/21 07:45:14;;;;;;;12.70;9.10;;;;;;;9.29;78.74;99971.89;103245;1250;139165;-74
2023/03/21 07:47:44;;;;;;;11.80;8.30;;;;;;;9.47;78.29;99972.70;104785;1253;108641;-76
2023/03/21 07:50:12;;;;;;;10.10;8.00;;;;;;;9.62;77.80;99967.34;104620;1255;138693;-76
2023/03/21 07:52:40;;;;;;;10.20;8.00;;;;;;;9.71;77.20;99971.77;105010;1250;110675;-75
2023/03/21 07:55:09;;;;;;;10.00;7.60;;;;;;;9.83;77.16;99972.40;103769;1253;107800;-76
2023/03/21 07:57:36;;;;;;;11.90;8.20;;;;;;;9.97;76.73;99971.38;103638;1253;138512;-75
2023/03/21 08:00:05;;;;;;;11.30;8.70;;;;;;;10.07;76.47;99976.77;103495;1249;106782;-75
2023/03/21 08:02:38;;;;;;;12.90;8.10;;;;;;;10.15;76.30;99983.08;103313;1253;137731;-74
2023/03/21 08:05:06;;;;;;;13.60;8.90;;;;;;;10.18;76.14;99984.71;103493;1253;110602;-76
2023/03/21 08:07:34;;;;;;;11.30;8.30;;;;;;;10.19;75.71;99983.27;103402;1253;138796;-74
2023/03/21 08:10:14;;;;;;;11.50;7.90;;;;;;;10.21;75.68;99984.82;103533;1253;98344;-85
2023/03/21 08:12:42;;;;;;;11.70;7.20;;;;;;;10.22;75.16;99984.60;103580;1249;108156;-87
2023/03/21 08:15:11;;;;;;;9.10;6.80;;;;;;;10.20;74.80;99986.22;103463;1253;139562;-85
2023/03/21 08:17:39;;;;;;;10.30;7.90;;;;;;;10.23;74.90;99989.27;104951;1249;112012;-88
2023/03/21 08:20:11;;;;;;;10.10;7.10;;;;;;;10.27;74.73;99989.30;103925;1253;138046;-90
2023/03/21 08:22:38;;;;;;;9.20;7.10;;;;;;;10.28;74.30;99985.27;103671;1253;97883;-84
2023/03/21 08:25:08;;;;;;;10.30;7.50;;;;;;;10.32;74.17;99988.10;103485;1252;107973;-85
2023/03/21 08:27:36;;;;;;;12.40;7.80;;;;;;;10.38;74.25;99987.19;103574;1249;138225;-89
2023/03/21 08:30:04;;;;;;;10.40;7.60;;;;;;;10.50;74.38;99986.59;103581;1253;110908;-89
2023/03/21 08:32:32;;;;;;;10.40;7.80;;;;;;;10.67;74.34;99988.74;103581;1251;137878;-88
2023/03/21 08:35:11;;;;;;;11.30;8.40;;;;;;;10.81;73.69;99991.55;103579;1253;98058;-88
2023/03/21 08:37:39;;;;;;;10.10;8.00;;;;;;;10.87;73.21;99988.35;103470;1250;137976;-89
2023/03/21 08:40:12;;;;;;;9.60;7.00;;;;;;;10.89;72.76;99990.55;103548;1250;97887;-88
2023/03/21 08:42:40;;;;;;;9.00;7.40;;;;;;;10.88;72.51;99995.25;103476;1250;111077;-87
2023/03/21 08:45:10;;;;;;;8.10;6.80;;;;;;;10.93;72.66;99995.44;103408;1247;137925;-86
2023/03/21 08:47:37;;;;;;;14.00;8.40;;;;;;;10.96;72.30;99998.64;104443;1253;96056;-86
2023/03/21 08:50:08;;;;;;;9.70;8.00;;;;;;;10.94;71.86;100001.84;103311;1256;138122;-85
2023/03/21 08:52:36;;;;;;;10.20;7.70;;;;;;;10.85;71.47;100005.31;103659;1250;97630;-85
2023/03/21 08:55:03;;;;;;;10.30;7.60;;;;;;;10.73;71.71;100007.46;103456;1250;111196;-90
2023/03/21 08:57:31;;;;;;;10.40;8.10;;;;;;;10.69;71.95;100010.76;103350;1250;139977;-85
2023/03/21 08:59:58;;;;;;;10.40;7.90;;;;;;;10.70;72.18;100011.08;103406;1253;97771;-76
2023/03/21 09:02:26;;;;;;;12.50;7.50;;;;;;;10.78;72.19;100012.53;103361;1250;138386;-83
2023/03/21 09:04:57;;;;;;;10.30;7.80;;;;;;;10.84;72.07;100016.28;103600;1250;97822;-87
2023/03/21 09:07:26;;;;;;;9.60;7.70;;;;;;;10.91;72.01;100011.86;103485;1251;138209;-85
2023/03/21 09:09:53;;;;;;;8.60;7.30;;;;;;;10.97;71.90;100017.07;103620;1253;107965;-85
2023/03/21 09:12:41;;;;;;;9.40;7.50;;;;;;;10.98;71.59;100020.84;103592;1250;98008;-84
2023/03/21 09:15:11;;;;;;;9.00;7.60;;;;;;;10.98;71.54;100020.13;103435;1253;137770;-81
2023/03/21 09:17:42;;;;;;;9.50;7.80;;;;;;;10.95;71.14;100022.33;105028;1250;95713;-82
2023/03/21 09:20:17;;;;;;;14.10;7.70;;;;;;;10.89;71.07;100022.90;104922;1250;137631;-84
2023/03/21 09:22:45;;;;;;;11.00;7.50;;;;;;;10.81;71.02;100021.96;104306;1253;107588;-83
2023/03/21 09:25:12;;;;;;;13.50;7.60;;;;;;;10.68;70.78;100026.78;103552;1250;97676;-82
2023/03/21 09:27:40;;;;;;;9.30;7.30;;;;;;;10.55;70.82;100032.81;103469;1251;137739;-84
2023/03/21 09:30:10;;;;;;;9.20;6.50;;;;;;;10.42;70.92;100032.09;103577;1250;97667;-83
2023/03/21 09:32:38;;;;;;;10.40;7.70;;;;;;;10.33;71.19;100033.59;104805;1250;138368;-87
2023/03/21 09:35:08;;;;;;;8.90;6.80;;;;;;;10.24;71.24;100036.50;104336;1253;109868;-84
2023/03/21 09:37:37;;;;;;;9.70;7.80;;;;;;;10.16;71.50;100039.70;103402;1250;138627;-85
2023/03/21 09:40:07;;;;;;;10.60;7.50;;;;;;;10.12;71.68;100042.98;103504;1253;107774;-84
2023/03/21 09:42:44;;;;;;;11.60;7.40;;;;;;;10.09;71.85;100041.67;103492;1253;97779;-85
2023/03/21 09:45:19;;;;;;;11.60;8.00;;;;;;;10.04;72.16;100035.75;103392;1252;138008;-84
2023/03/21 09:47:53;;;;;;;10.60;7.60;;;;;;;10.04;72.40;100042.69;103500;1253;107527;-84
2023/03/21 09:50:26;;;;;;;10.10;7.80;;;;;;;10.07;72.52;100044.54;103340;1250;138392;-75
2023/03/21 09:52:57;;;;;;;11.10;8.10;;;;;;;10.07;72.54;100042.98;103421;1249;107986;-76
2023/03/21 09:55:30;;;;;;;14.50;8.70;;;;;;;10.04;72.57;100039.73;103282;1250;138198;-74
2023/03/21 09:58:05;;;;;;;10.70;7.70;;;;;;;10.08;73.12;100041.20;103519;1250;110116;-74
2023/03/21 10:00:38;;;;;;;10.10;7.50;;;;;;;10.17;73.02;100043.30;103434;1251;108768;-75
2023/03/21 10:03:16;;;;;;;9.20;6.90;;;;;;;10.25;73.02;100043.79;104222;1251;138887;-74
2023/03/21 10:05:47;;;;;;;11.50;7.40;;;;;;;10.32;72.79;100044.94;103877;1250;107393;-76
2023/03/21 10:08:21;;;;;;;13.40;7.80;;;;;;;10.35;72.80;100044.33;103358;1253;138902;-75
2023/03/21 10:10:55;;;;;;;10.40;7.60;;;;;;;10.31;72.70;100046.88;103500;1250;110429;-78
2023/03/21 10:13:25;;;;;;;8.70;6.90;;;;;;;10.31;73.15;100049.48;103567;1247;105905;-73
2023/03/21 10:16:00;;;;;;;12.30;7.70;;;;;;;10.33;73.17;100050.82;103490;1253;97803;-73
2023/03/21 10:18:32;;;;;;;12.00;7.30;;;;;;;10.28;73.25;100050.09;103425;1253;107422;-76
2023/03/21 10:21:06;;;;;;;10.10;7.20;;;;;;;10.21;73.42;100052.91;103386;1253;138250;-75
2023/03/21 10:23:39;;;;;;;10.10;7.10;;;;;;;10.19;73.62;100054.70;103423;1247;112380;-76
2023/03/21 10:26:29;;;;;;;9.90;7.30;;;;;;;10.15;73.80;100055.02;103242;1251;138777;-75
2023/03/21 10:29:01;;;;;;;9.60;7.10;;;;;;;10.20;74.27;100053.31;103576;1248;97081;-86
2023/03/21 10:31:33;;;;;;;11.80;7.50;;;;;;;10.27;74.42;100055.52;103352;1250;140176;-83
2023/03/21 10:34:06;;;;;;;11.70;7.20;;;;;;;10.31;74.68;100056.11;103551;1253;97794;-84
2023/03/21 10:36:44;;;;;;;10.10;7.00;;;;;;;10.35;74.84;100060.83;103545;1250;110739;-75
2023/03/21 10:39:27;;;;;;;10.30;5.60;;;;;;;10.38;74.65;100060.21;103328;1251;138070;-77
2023/03/21 10:41:58;;;;;;;6.10;4.40;;;;;;;10.39;74.19;100058.08;103411;1250;97775;-75
2023/03/21 10:44:36;;;;;;;8.10;5.20;;;;;;;10.45;74.13;100058.92;103250;1250;137688;-76
2023/03/21 10:47:08;;;;;;;6.00;5.00;;;;;;;10.52;74.00;100061.98;103427;1253;97775;-76
2023/03/21 10:49:48;;;;;;;7.80;5.20;;;;;;;10.63;73.90;100061.41;103271;1253;138165;-76
2023/03/21 10:52:35;;;;;;;6.10;4.70;;;;;;;10.78;73.81;100063.99;103453;1253;107840;-78
2023/03/21 10:55:21;;;;;;;7.00;5.00;;;;;;;10.94;73.95;100060.48;103350;1253;97860;-74
2023/03/21 10:57:53;;;;;;;5.40;4.80;;;;;;;11.09;73.32;100056.59;103425;1253;108408;-76
2023/03/21 11:00:25;;;;;;;5.60;4.90;;;;;;;11.26;73.02;100057.88;103401;1250;97759;-77
2023/03/21 11:03:03;;;;;;;7.20;5.00;;;;;;;11.40;72.52;100060.48;103332;1250;137629;-77
2023/03/21 11:05:43;;;;;;;9.20;5.60;;;;;;;11.48;72.22;100055.10;103355;1253;107882;-80
2023/03/21 11:08:14;;;;;;;7.50;5.40;;;;;;;11.50;71.88;100056.80;103301;1253;137968;-77
2023/03/21 11:10:54;;;;;;;6.30;5.50;;;;;;;11.44;71.32;100052.27;103469;1251;107756;-78
2023/03/21 11:13:39;;;;;;;7.00;5.70;;;;;;;11.37;70.94;100055.36;103407;1253;137994;-77
2023/03/21 11:16:11;;;;;;;8.40;5.70;;;;;;;11.31;71.09;100057.51;103461;1253;111320;-80
2023/03/21 11:18:52;;;;;;;6.60;5.30;;;;;;;11.27;71.17;100059.20;103506;1250;107612;-79
2023/03/21 11:21:21;;;;;;;6.90;5.50;;;;;;;11.22;71.03;100056.45;104541;1250;138369;-78
2023/03/21 11:23:51;;;;;;;7.60;5.60;;;;;;;11.22;71.15;100058.02;104423;1253;108355;-74
2023/03/21 11:26:26;;;;;;;7.30;5.90;;;;;;;11.24;71.06;100055.87;103339;1253;138759;-73
2023/03/21 11:28:57;;;;;;;6.50;5.20;;;;;;;11.26;71.03;100055.79;103535;1248;111203;-77
2023/03/21 11:31:39;;;;;;;8.00;5.00;;;;;;;11.33;71.05;100053.95;104991;1250;107697;-77
2023/03/21 11:34:09;;;;;;;7.60;4.90;;;;;;;11.53;71.12;100046.23;104193;1253;98421;-77
2023/03/21 11:36:40;;;;;;;5.50;4.90;;;;;;;11.70;70.69;100046.07;103451;1250;106959;-76
2023/03/21 11:39:28;;;;;;;7.10;5.10;;;;;;;11.77;69.94;100049.60;103373;1247;137906;-75
2023/03/21 11:41:54;;;;;;;;;;;;;;;11.85;69.57;100043.92;103514;1251;111323;-76